LIML METAR and TAF | Updated Today

LIML METAR

Milano Linate Airport

Observation time: 5 min. ago

LIML 032150Z VRB02KT CAVOK 01/00 Q1015 NOSIG

Need help? Read our tutorial on how to read METARs or read the parsed version below.

Milano Linate Airport (LIML) METAR

  • Weather conditions on Fri, 03 Dec 2021 21:50:00 +0000 (5 min. ago):
  • Present conditions: Dry
  • Clouds: Clear skies
  • Visibility: Greater than 10 km
  • Wind: Variable at 2 knots
  • Temperature: 1 celsius
  • Dew point: 0 celsius
  • Pressure: 1015 millibars
  • Remarks: None


Useful to know...

LIML TAF

Milano Linate Airport

TAF LIML 031700Z 0318/0418 VRB05KT 8000 FEW050
Observation time: 4:55 hr. ago
Need help? Read our tutorial on how to read TAFs or read the parsed version below.

Parsed version of TAF for Milano Linate Airport (LIML)

  • From 03 December at 18:00 UTC, to day 04 of the month at 18:00 UTC
  • Clouds: A few at 1524 meters
  • Visibility: 8000 meters
  • Wind: Variable at 5